Niedercorn, Luxembourg
Current Conditions -  °F | °C
As of 1:20 AM on Monday 26 Jan 2015 (Local Time) from ELLX Reporting Station
NA  
Wind Chill: 32°   Ceiling: NA
Heat Index: 32°   Visibility: NA
Dew Point: 32°   Wind: 3mph
Humidity: 100%   Direction: NA
Pressure: 30.33"   Gusts: NA
Location:  49.54°N, 5.89°E
Report Text: ELLX 260020Z AUTO VRB03KT //// 00/00 Q1027
Loading
Personal Weather Stations






























Interactive Weather Map New forecast layout! Learn more

10-Day Weather Forecast

Advertisements
Track Severe Weather on mobile